This is the latest recevied weather packets stored in our database for station/object KB1JLI. If no packets are shown the sender has not sent any weather packets the latest 10 day(s).
| Time | Temp. | Humidity | Pressure | Rain* | Wind** | Luminosity | Snow |
|---|---|---|---|---|---|---|---|
| 1777560294 | 8.89° C | 98% | 1007.7 hPa | 0 mm | - | 75 W/m² | - |
| 1777559991 | 8.33° C | 98% | 1007.8 hPa | 0 mm | - | 70 W/m² | - |
| 1777559691 | 8.33° C | 98% | 1008 hPa | 0 mm | - | 86 W/m² | - |
| 1777559389 | 8.33° C | 98% | 1007.6 hPa | 1.27 mm | - | 149 W/m² | - |
| 1777559085 | 8.33° C | 98% | 1008 hPa | 3.05 mm | - | 83 W/m² | - |
| 1777558785 | 8.33° C | 98% | 1007.9 hPa | 1.78 mm | - | 101 W/m² | - |
| 1777558481 | 8.33° C | 98% | 1008 hPa | 1.27 mm | - | 90 W/m² | - |
| 1777558178 | 8.33° C | 98% | 1007.9 hPa | 3.05 mm | - | 93 W/m² | - |
| 1777557874 | 8.33° C | 98% | 1008.1 hPa | 3.05 mm | - | 86 W/m² | - |
| 1777557571 | 8.33° C | 98% | 1008.2 hPa | 3.05 mm | - | 82 W/m² | - |
| 1777557267 | 7.78° C | 98% | 1008.1 hPa | 1.78 mm | - | 68 W/m² | - |
| 1777556963 | 8.33° C | 99% | 1008.2 hPa | 0 mm | - | 69 W/m² | - |
| 1777556659 | 8.33° C | 99% | 1008.5 hPa | 0 mm | - | 46 W/m² | - |
| 1777556355 | 8.33° C | 99% | 1008.3 hPa | 0 mm | - | 42 W/m² | - |
| 1777556050 | 7.78° C | 99% | 1008.3 hPa | 0 mm | - | 61 W/m² | - |
| 1777555745 | 7.78° C | 99% | 1008.2 hPa | 0 mm | - | 72 W/m² | - |
| 1777555442 | 7.78° C | 99% | 1008.1 hPa | 0 mm | - | 65 W/m² | - |
| 1777555138 | 7.78° C | 99% | 1007.9 hPa | 0 mm | - | 95 W/m² | - |
| 1777554836 | 7.78° C | 99% | 1008 hPa | 0 mm | - | 121 W/m² | - |
| 1777554532 | 7.78° C | 99% | 1008.3 hPa | 0 mm | - | 117 W/m² | - |
| 1777554229 | 7.78° C | 99% | 1008.2 hPa | 0 mm | - | 100 W/m² | - |
| 1777553926 | 7.78° C | 99% | 1008.3 hPa | 0 mm | - | 105 W/m² | - |
| 1777553623 | 7.78° C | 99% | 1008.2 hPa | 0 mm | - | 96 W/m² | - |
| 1777553319 | 7.78° C | 99% | 1008.3 hPa | 0 mm | - | 79 W/m² | - |
| 1777553014 | 7.78° C | 99% | 1008.3 hPa | 0 mm | - | 89 W/m² | - |
* Rain latest hour (hover to see other rain measurements)
** Current wind speed in m/s (hover to see current wind gust speed)